createdAt,value
2023-04-14T00:01:28.849Z,1.70
2023-04-14T00:03:55.814Z,1.23
2023-04-14T00:06:22.821Z,1.30
2023-04-14T00:08:49.509Z,1.37
2023-04-14T00:11:16.513Z,1.57
2023-04-14T00:13:43.187Z,1.47
2023-04-14T00:16:11.511Z,1.53
2023-04-14T00:18:38.325Z,1.10
2023-04-14T00:21:05.008Z,1.43
2023-04-14T00:23:31.673Z,1.30
2023-04-14T00:25:58.314Z,1.10
2023-04-14T00:28:24.949Z,1.30
2023-04-14T00:30:51.654Z,1.43
2023-04-14T00:33:18.392Z,1.23
2023-04-14T00:35:45.172Z,1.30
2023-04-14T00:38:11.917Z,1.57
2023-04-14T00:40:38.610Z,1.50
2023-04-14T00:43:05.248Z,1.13
2023-04-14T00:45:32.521Z,1.53
2023-04-14T00:47:59.290Z,1.43
2023-04-14T00:50:26.039Z,1.20
2023-04-14T00:52:53.434Z,1.60
2023-04-14T00:55:21.260Z,1.30
2023-04-14T00:57:48.687Z,1.40
2023-04-14T01:00:15.669Z,1.10
2023-04-14T01:02:42.653Z,1.10
2023-04-14T01:05:09.579Z,1.10
2023-04-14T01:07:37.044Z,1.20
2023-04-14T01:10:04.211Z,1.43
2023-04-14T01:12:36.020Z,1.30
2023-04-14T01:15:12.456Z,1.43
2023-04-14T01:17:45.394Z,1.40
2023-04-14T01:20:22.758Z,1.43
2023-04-14T01:22:52.910Z,1.20
2023-04-14T01:25:29.880Z,1.50
2023-04-14T01:27:59.552Z,1.47
2023-04-14T01:30:35.354Z,1.40
2023-04-14T01:33:05.038Z,1.30
2023-04-14T01:35:34.583Z,1.50
2023-04-14T01:38:04.370Z,1.60
2023-04-14T01:40:32.348Z,1.37
2023-04-14T01:43:04.034Z,1.43
2023-04-14T01:45:36.561Z,1.40
2023-04-14T01:48:03.608Z,1.63
2023-04-14T01:50:31.339Z,1.60
2023-04-14T01:52:59.596Z,1.40
2023-04-14T01:55:26.917Z,1.70
2023-04-14T01:57:55.885Z,1.40
2023-04-14T02:00:24.216Z,1.80
2023-04-14T02:02:54.746Z,1.50
2023-04-14T02:05:22.186Z,1.47
2023-04-14T02:07:51.332Z,1.60
2023-04-14T02:10:20.833Z,1.77
2023-04-14T02:12:49.362Z,1.90
2023-04-14T02:15:18.517Z,1.93
2023-04-14T02:17:48.365Z,1.73
2023-04-14T02:20:16.029Z,1.87
2023-04-14T02:22:42.915Z,2.00
2023-04-14T02:25:09.822Z,2.20
2023-04-14T02:27:38.310Z,1.77
2023-04-14T02:30:11.045Z,2.13
2023-04-14T02:32:39.582Z,2.17
2023-04-14T02:35:10.458Z,2.00
2023-04-14T02:37:38.931Z,2.27
2023-04-14T02:40:12.646Z,1.97
2023-04-14T02:42:41.165Z,2.00
2023-04-14T02:45:11.894Z,2.20
2023-04-14T02:47:40.263Z,2.40
2023-04-14T02:50:09.694Z,2.50
2023-04-14T02:52:39.016Z,3.00
2023-04-14T02:55:06.667Z,2.87
2023-04-14T02:57:33.637Z,2.80
2023-04-14T03:00:00.781Z,3.20
2023-04-14T03:02:28.391Z,2.73
2023-04-14T03:05:03.807Z,2.97
2023-04-14T03:07:50.734Z,2.73
2023-04-14T03:10:19.886Z,3.50
2023-04-14T03:12:47.795Z,3.43
2023-04-14T03:15:15.912Z,3.53
2023-04-14T03:17:47.899Z,3.80
2023-04-14T03:20:18.709Z,4.10
2023-04-14T03:22:47.158Z,4.43
2023-04-14T03:25:15.779Z,4.20
2023-04-14T03:27:46.370Z,4.37
2023-04-14T03:30:13.646Z,4.57
2023-04-14T03:32:41.747Z,5.00
2023-04-14T03:35:12.943Z,4.20
2023-04-14T03:37:41.341Z,4.70
2023-04-14T03:40:11.063Z,4.73
2023-04-14T03:42:40.609Z,4.87
2023-04-14T03:45:07.715Z,5.00
2023-04-14T03:47:37.535Z,4.50
2023-04-14T03:50:05.126Z,4.50
2023-04-14T03:52:34.067Z,4.77
2023-04-14T03:55:05.938Z,4.90
2023-04-14T03:57:34.730Z,5.10
2023-04-14T04:00:03.043Z,5.17
2023-04-14T04:02:41.525Z,4.73
2023-04-14T04:05:09.654Z,4.70
2023-04-14T04:07:37.514Z,5.30
2023-04-14T04:10:06.296Z,4.97
2023-04-14T04:12:33.454Z,4.70
2023-04-14T04:15:01.624Z,5.00
2023-04-14T04:17:31.232Z,5.30
2023-04-14T04:20:00.214Z,5.30
2023-04-14T04:22:28.303Z,4.97
2023-04-14T04:24:55.919Z,4.83
2023-04-14T04:27:28.683Z,5.00
2023-04-14T04:30:07.073Z,4.80
2023-04-14T04:32:35.597Z,5.27
2023-04-14T04:35:03.390Z,4.67
2023-04-14T04:37:30.275Z,5.27
2023-04-14T04:39:58.198Z,4.90
2023-04-14T04:42:25.343Z,5.40
2023-04-14T04:44:53.398Z,5.60
2023-04-14T04:47:20.176Z,5.50
2023-04-14T04:49:46.822Z,6.67
2023-04-14T04:52:13.471Z,6.30
2023-04-14T04:54:40.323Z,8.40
2023-04-14T04:57:06.987Z,7.30
2023-04-14T04:59:34.102Z,8.60
2023-04-14T05:02:01.836Z,7.87
2023-04-14T05:04:28.643Z,6.33
2023-04-14T05:06:55.335Z,5.07
2023-04-14T05:09:22.016Z,5.00
2023-04-14T05:11:48.761Z,5.30
2023-04-14T05:14:15.662Z,5.57
2023-04-14T05:16:42.338Z,5.33
2023-04-14T05:19:09.115Z,5.50
2023-04-14T05:21:35.849Z,5.87
2023-04-14T05:24:02.634Z,5.57
2023-04-14T05:28:59.084Z,5.67
2023-04-14T05:31:25.881Z,6.10
2023-04-14T05:33:52.567Z,5.80
2023-04-14T05:36:19.243Z,5.97
2023-04-14T05:38:45.946Z,8.30
2023-04-14T05:41:12.597Z,8.10
2023-04-14T05:43:39.335Z,6.87
2023-04-14T05:46:06.107Z,7.00
2023-04-14T05:48:33.353Z,6.27
2023-04-14T05:51:00.317Z,6.27
2023-04-14T05:53:27.769Z,6.30
2023-04-14T05:55:54.577Z,5.50
2023-04-14T05:58:21.609Z,5.83
2023-04-14T06:00:48.371Z,5.67
2023-04-14T06:03:16.417Z,5.47
2023-04-14T06:05:43.777Z,5.70
2023-04-14T06:08:10.738Z,5.60
2023-04-14T06:10:37.418Z,6.27
2023-04-14T06:13:04.136Z,5.53
2023-04-14T06:15:31.459Z,5.40
2023-04-14T06:17:58.274Z,5.33
2023-04-14T06:20:25.673Z,5.77
2023-04-14T06:22:52.487Z,5.90
2023-04-14T06:25:19.226Z,5.80
2023-04-14T06:27:46.092Z,5.63
2023-04-14T06:30:15.184Z,5.87
2023-04-14T06:32:41.933Z,6.00
2023-04-14T06:35:16.355Z,5.70
2023-04-14T06:37:49.011Z,6.13
2023-04-14T06:40:15.897Z,5.30
2023-04-14T06:42:42.645Z,5.07
2023-04-14T06:45:09.591Z,5.63
2023-04-14T06:47:36.298Z,5.60
2023-04-14T06:50:02.983Z,5.50
2023-04-14T06:52:29.660Z,5.80
2023-04-14T06:54:56.281Z,5.50
2023-04-14T06:57:22.919Z,6.90
2023-04-14T06:59:49.598Z,5.90
2023-04-14T07:02:16.471Z,5.60
2023-04-14T07:04:43.256Z,6.10
2023-04-14T07:07:10.024Z,5.20
2023-04-14T07:09:36.749Z,5.60
2023-04-14T07:12:03.587Z,5.60
2023-04-14T07:14:31.051Z,5.67
2023-04-14T07:16:57.735Z,6.20
2023-04-14T07:19:24.403Z,5.97
2023-04-14T07:21:51.150Z,5.33
2023-04-14T07:24:17.837Z,5.30
2023-04-14T07:26:44.599Z,5.57
2023-04-14T07:29:11.912Z,5.17
2023-04-14T07:31:39.917Z,5.07
2023-04-14T07:34:06.641Z,5.80
2023-04-14T07:36:33.519Z,5.20
2023-04-14T07:39:00.310Z,5.50
2023-04-14T07:41:27.806Z,5.30
2023-04-14T07:43:55.700Z,5.23
2023-04-14T07:46:22.667Z,5.00
2023-04-14T07:48:49.484Z,4.93
2023-04-14T07:51:16.485Z,4.30
2023-04-14T07:53:44.912Z,4.83
2023-04-14T07:56:12.364Z,4.77
2023-04-14T07:58:39.021Z,4.37
2023-04-14T08:01:06.327Z,4.77
2023-04-14T08:03:33.316Z,4.80
2023-04-14T08:06:00.456Z,4.40
2023-04-14T08:08:28.285Z,4.83
2023-04-14T08:10:55.190Z,4.60
2023-04-14T08:13:21.974Z,4.40
2023-04-14T08:15:48.931Z,3.73
2023-04-14T08:18:15.708Z,3.97
2023-04-14T08:20:42.384Z,4.43
2023-04-14T08:23:09.084Z,4.33
2023-04-14T08:25:35.814Z,4.13
2023-04-14T08:28:02.470Z,4.03
2023-04-14T08:30:29.695Z,4.03
2023-04-14T08:32:58.818Z,3.97
2023-04-14T08:35:37.271Z,4.30
2023-04-14T08:38:08.264Z,4.53
2023-04-14T08:40:38.777Z,4.00
2023-04-14T08:43:05.917Z,4.13
2023-04-14T08:45:33.321Z,4.07
2023-04-14T08:48:00.692Z,3.97
2023-04-14T08:50:32.460Z,4.27
2023-04-14T08:53:00.516Z,3.50
2023-04-14T08:55:28.057Z,3.40
2023-04-14T08:57:55.288Z,3.30
2023-04-14T09:00:22.709Z,3.13
2023-04-14T09:02:50.506Z,3.40
2023-04-14T09:05:18.048Z,3.40
2023-04-14T09:07:44.834Z,3.23
2023-04-14T09:10:11.990Z,2.67
2023-04-14T09:12:41.110Z,3.23
2023-04-14T09:15:08.810Z,2.97
2023-04-14T09:17:36.706Z,2.87
2023-04-14T09:20:38.219Z,2.70
2023-04-14T09:22:51.154Z,2.50
2023-04-14T09:25:18.578Z,2.63
2023-04-14T09:27:45.460Z,3.20
2023-04-14T09:30:12.412Z,2.67
2023-04-14T09:32:39.606Z,3.17
2023-04-14T09:35:07.695Z,2.67
2023-04-14T09:37:44.601Z,2.97
2023-04-14T09:40:11.914Z,3.13
2023-04-14T09:42:39.883Z,2.53
2023-04-14T09:45:06.876Z,2.70
2023-04-14T09:47:33.600Z,2.57
2023-04-14T09:50:03.114Z,2.70
2023-04-14T09:52:37.638Z,2.20
2023-04-14T09:55:06.836Z,2.70
2023-04-14T09:57:34.452Z,2.60
2023-04-14T10:00:01.358Z,2.83
2023-04-14T10:02:28.241Z,2.73
2023-04-14T10:05:07.883Z,2.63
2023-04-14T10:07:40.269Z,2.63
2023-04-14T10:10:07.580Z,2.57
2023-04-14T10:12:34.386Z,2.57
2023-04-14T10:15:01.363Z,2.50
2023-04-14T10:17:29.905Z,2.43
2023-04-14T10:19:58.151Z,2.70
2023-04-14T10:22:27.580Z,2.97
2023-04-14T10:24:54.836Z,2.50
2023-04-14T10:27:22.135Z,2.73
2023-04-14T10:29:48.994Z,3.07
2023-04-14T10:32:16.688Z,2.57
2023-04-14T10:34:53.893Z,2.63
2023-04-14T10:37:20.576Z,2.00
2023-04-14T10:39:57.487Z,2.37
2023-04-14T10:42:24.541Z,1.93
2023-04-14T10:45:07.578Z,2.40
2023-04-14T10:47:35.982Z,2.30
2023-04-14T10:50:13.463Z,2.53
2023-04-14T10:53:09.391Z,2.07
2023-04-14T10:55:51.735Z,2.27
2023-04-14T10:58:22.953Z,2.67
2023-04-14T11:00:49.848Z,2.23
2023-04-14T11:03:18.068Z,2.20
2023-04-14T11:05:48.200Z,2.50
2023-04-14T11:08:16.199Z,2.20
2023-04-14T11:10:49.804Z,2.13
2023-04-14T11:13:17.899Z,2.00
2023-04-14T11:15:45.957Z,2.20
2023-04-14T11:18:14.586Z,1.90
2023-04-14T11:20:44.525Z,2.23
2023-04-14T11:23:14.960Z,2.30
2023-04-14T11:25:41.778Z,2.23
2023-04-14T11:28:08.704Z,2.10
2023-04-14T11:30:35.991Z,2.20
2023-04-14T11:33:02.989Z,2.43
2023-04-14T11:35:31.125Z,2.60
2023-04-14T11:37:58.875Z,2.63
2023-04-14T11:40:27.218Z,2.40
2023-04-14T11:42:55.463Z,2.40
2023-04-14T11:45:23.265Z,2.50
2023-04-14T11:47:57.918Z,2.37
2023-04-14T11:50:25.240Z,2.40
2023-04-14T11:52:54.036Z,2.50
2023-04-14T11:55:23.164Z,2.60
2023-04-14T11:57:49.898Z,2.60
2023-04-14T12:00:18.086Z,2.57
2023-04-14T12:02:45.559Z,2.17
2023-04-14T12:05:13.782Z,1.93
2023-04-14T12:07:44.477Z,2.13
2023-04-14T12:10:11.328Z,2.20
2023-04-14T12:12:37.973Z,2.10
2023-04-14T12:15:05.459Z,1.97
2023-04-14T12:17:32.333Z,2.27
2023-04-14T12:19:59.066Z,2.27
2023-04-14T12:22:26.986Z,2.17
2023-04-14T12:24:53.953Z,2.40
2023-04-14T12:27:24.615Z,2.00
2023-04-14T12:29:51.872Z,1.80
2023-04-14T12:32:18.827Z,3.97
2023-04-14T12:34:58.399Z,1.90
2023-04-14T12:37:28.566Z,2.47
2023-04-14T12:40:00.000Z,2.67
2023-04-14T12:42:27.496Z,2.03
2023-04-14T12:44:58.687Z,2.00
2023-04-14T12:47:32.571Z,1.57
2023-04-14T12:50:00.567Z,1.50
2023-04-14T12:52:38.087Z,1.60
2023-04-14T12:55:08.006Z,1.70
2023-04-14T12:57:34.911Z,1.70
2023-04-14T13:00:02.071Z,1.60
2023-04-14T13:02:29.883Z,1.60
2023-04-14T13:04:56.993Z,1.60
2023-04-14T13:07:23.850Z,1.70
2023-04-14T13:09:51.599Z,2.00
2023-04-14T13:12:18.579Z,1.40
2023-04-14T13:14:45.291Z,1.43
2023-04-14T13:17:11.978Z,1.33
2023-04-14T13:19:38.684Z,1.70
2023-04-14T13:22:05.543Z,2.07
2023-04-14T13:24:32.247Z,1.80
2023-04-14T13:26:58.916Z,1.67
2023-04-14T13:29:25.604Z,1.60
2023-04-14T13:31:52.457Z,1.50
2023-04-14T13:34:19.126Z,1.40
2023-04-14T13:36:45.832Z,1.70
2023-04-14T13:39:12.593Z,1.60
2023-04-14T13:41:39.281Z,1.93
2023-04-14T13:44:06.469Z,1.80
2023-04-14T13:46:40.627Z,2.07
2023-04-14T13:49:08.100Z,1.80
2023-04-14T13:51:34.751Z,2.00
2023-04-14T13:54:01.495Z,1.80
2023-04-14T13:56:28.268Z,1.90
2023-04-14T13:58:54.980Z,1.90
2023-04-14T14:01:21.690Z,1.60
2023-04-14T14:03:49.911Z,1.93
2023-04-14T14:06:17.010Z,1.77
2023-04-14T14:08:43.713Z,1.80
2023-04-14T14:11:10.758Z,1.50
2023-04-14T14:13:38.624Z,1.57
2023-04-14T14:16:08.541Z,1.60
2023-04-14T14:18:38.395Z,1.50
2023-04-14T14:21:05.303Z,1.73
2023-04-14T14:23:32.303Z,1.70
2023-04-14T14:25:59.067Z,1.87
2023-04-14T14:28:26.135Z,1.77
2023-04-14T14:30:52.874Z,1.70
2023-04-14T14:33:19.630Z,1.57
2023-04-14T14:35:46.347Z,1.70
2023-04-14T14:38:13.106Z,1.20
2023-04-14T14:40:39.819Z,1.50
2023-04-14T14:43:06.654Z,1.57
2023-04-14T14:45:33.867Z,1.40
2023-04-14T14:48:01.209Z,1.30
2023-04-14T14:50:27.910Z,1.20
2023-04-14T14:52:56.754Z,1.27
2023-04-14T14:55:23.518Z,2.30
2023-04-14T14:57:51.175Z,2.50
2023-04-14T15:00:18.745Z,2.80
2023-04-14T15:02:45.602Z,3.17
2023-04-14T15:05:12.578Z,2.53
2023-04-14T15:07:39.638Z,2.53
2023-04-14T15:10:06.765Z,2.17
2023-04-14T15:12:33.427Z,2.70
2023-04-14T15:15:00.165Z,2.10
2023-04-14T15:17:27.144Z,2.73
2023-04-14T15:19:53.932Z,2.30
2023-04-14T15:22:20.789Z,2.30
2023-04-14T15:24:47.500Z,2.10
2023-04-14T15:27:14.238Z,2.50
2023-04-14T15:29:41.004Z,1.80
2023-04-14T15:32:08.147Z,1.83
2023-04-14T15:34:34.778Z,1.97
2023-04-14T15:37:01.478Z,2.30
2023-04-14T15:39:28.683Z,2.10
2023-04-14T15:41:55.699Z,1.90
2023-04-14T15:44:22.447Z,1.70
2023-04-14T15:46:49.698Z,1.57
2023-04-14T15:49:16.359Z,1.90
2023-04-14T15:51:43.116Z,1.80
2023-04-14T15:54:09.776Z,2.10
2023-04-14T15:56:36.602Z,2.10
2023-04-14T15:59:03.408Z,1.90
2023-04-14T16:01:30.322Z,1.70
2023-04-14T16:03:57.156Z,1.80
2023-04-14T16:06:26.971Z,1.40
2023-04-14T16:08:58.359Z,1.40
2023-04-14T16:11:25.092Z,1.30
2023-04-14T16:13:52.315Z,1.53
2023-04-14T16:16:19.078Z,1.53
2023-04-14T16:18:49.161Z,1.77
2023-04-14T16:21:18.958Z,1.53
2023-04-14T16:23:48.264Z,1.50
2023-04-14T16:26:15.931Z,1.40
2023-04-14T16:28:43.336Z,1.57
2023-04-14T16:31:14.902Z,1.60
2023-04-14T16:33:41.855Z,2.03
2023-04-14T16:36:08.525Z,2.07
2023-04-14T16:38:35.386Z,2.70
2023-04-14T16:41:02.542Z,2.57
2023-04-14T16:43:34.050Z,2.33
2023-04-14T16:46:05.630Z,2.60
2023-04-14T16:48:33.066Z,2.40
2023-04-14T16:51:04.372Z,2.50
2023-04-14T16:53:31.349Z,2.23
2023-04-14T16:56:17.901Z,2.37
2023-04-14T16:58:47.918Z,2.60
2023-04-14T17:01:14.585Z,2.53
2023-04-14T17:03:50.098Z,2.53
2023-04-14T17:06:18.161Z,2.10
2023-04-14T17:08:44.850Z,2.37
2023-04-14T17:11:11.997Z,2.10
2023-04-14T17:13:42.441Z,2.27
2023-04-14T17:16:11.615Z,2.27
2023-04-14T17:18:38.454Z,2.20
2023-04-14T17:21:09.384Z,2.00
2023-04-14T17:23:37.101Z,1.93
2023-04-14T17:26:04.334Z,2.17
2023-04-14T17:28:33.510Z,1.73
2023-04-14T17:31:09.912Z,2.00
2023-04-14T17:33:37.144Z,1.97
2023-04-14T17:36:03.992Z,2.20
2023-04-14T17:38:31.085Z,2.50
2023-04-14T17:40:58.106Z,2.87
2023-04-14T17:43:24.799Z,8.03
2023-04-14T17:45:51.820Z,2.70
2023-04-14T17:48:19.380Z,2.83
2023-04-14T17:50:46.405Z,2.40
2023-04-14T17:53:16.320Z,2.60
2023-04-14T17:55:43.329Z,2.63
2023-04-14T17:58:10.430Z,2.33
2023-04-14T18:00:37.166Z,2.70
2023-04-14T18:03:04.150Z,2.40
2023-04-14T18:05:30.944Z,2.73
2023-04-14T18:07:57.639Z,2.40
2023-04-14T18:10:24.744Z,2.50
2023-04-14T18:12:51.989Z,2.10
2023-04-14T18:15:19.789Z,2.50
2023-04-14T18:17:46.556Z,2.33
2023-04-14T18:20:14.472Z,2.77
2023-04-14T18:22:41.323Z,2.73
2023-04-14T18:25:09.021Z,2.50
2023-04-14T18:30:05.885Z,2.87
2023-04-14T18:32:33.131Z,2.67
2023-04-14T18:34:59.888Z,2.47
2023-04-14T18:37:26.592Z,3.10
2023-04-14T18:39:53.253Z,2.50
2023-04-14T18:42:20.176Z,2.90
2023-04-14T18:44:46.891Z,3.03
2023-04-14T18:47:14.083Z,3.13
2023-04-14T18:49:40.759Z,3.30
2023-04-14T18:52:08.080Z,2.73
2023-04-14T18:54:34.747Z,3.40
2023-04-14T18:57:01.410Z,3.40
2023-04-14T18:59:28.469Z,3.17
2023-04-14T19:01:55.286Z,3.10
2023-04-14T19:04:22.163Z,7.07
2023-04-14T19:06:48.941Z,4.27
2023-04-14T19:09:15.738Z,4.73
2023-04-14T19:11:42.440Z,3.87
2023-04-14T19:14:09.159Z,4.30
2023-04-14T19:16:35.931Z,4.13
2023-04-14T19:19:02.918Z,3.53
2023-04-14T19:21:29.855Z,3.90
2023-04-14T19:23:57.096Z,3.33
2023-04-14T19:26:27.470Z,3.53
2023-04-14T19:28:57.397Z,3.30
2023-04-14T19:31:27.325Z,3.93
2023-04-14T19:33:54.666Z,3.53
2023-04-14T19:36:21.389Z,3.80
2023-04-14T19:38:48.152Z,3.83
2023-04-14T19:41:15.524Z,3.80
2023-04-14T19:43:42.180Z,3.73
2023-04-14T19:46:10.425Z,3.83
2023-04-14T19:48:37.203Z,3.77
2023-04-14T19:51:03.960Z,4.00
2023-04-14T19:53:30.692Z,3.97
2023-04-14T19:55:58.187Z,4.80
2023-04-14T19:58:26.609Z,4.60
2023-04-14T20:00:58.624Z,4.83
2023-04-14T20:03:25.805Z,4.87
2023-04-14T20:05:54.611Z,5.27
2023-04-14T20:08:21.915Z,5.53
2023-04-14T20:10:51.688Z,5.90
2023-04-14T20:13:19.149Z,5.60
2023-04-14T20:15:46.731Z,5.70
2023-04-14T20:18:13.374Z,9.80
2023-04-14T20:20:40.618Z,7.03
2023-04-14T20:23:07.434Z,6.07
2023-04-14T20:25:34.157Z,5.90
2023-04-14T20:28:01.146Z,5.50
2023-04-14T20:30:29.358Z,6.13
2023-04-14T20:32:56.411Z,5.10
2023-04-14T20:35:23.249Z,5.60
2023-04-14T20:37:49.908Z,5.70
2023-04-14T20:40:18.217Z,5.70
2023-04-14T20:42:45.435Z,5.33
2023-04-14T20:45:12.309Z,5.40
2023-04-14T20:47:38.967Z,4.97
2023-04-14T20:50:06.040Z,4.70
2023-04-14T20:52:34.050Z,5.10
2023-04-14T20:55:03.432Z,5.27
2023-04-14T20:57:30.127Z,5.43
2023-04-14T20:59:56.827Z,5.50
2023-04-14T21:02:23.738Z,5.07
2023-04-14T21:04:50.487Z,5.03
2023-04-14T21:07:17.156Z,5.30
2023-04-14T21:09:44.621Z,4.83
2023-04-14T21:12:15.185Z,5.23
2023-04-14T21:15:44.274Z,5.80
2023-04-14T21:17:30.089Z,5.57
2023-04-14T21:19:57.514Z,5.40
2023-04-14T21:22:24.352Z,5.23
2023-04-14T21:24:51.024Z,6.23
2023-04-14T21:27:17.734Z,6.10
2023-04-14T21:29:44.770Z,6.67
2023-04-14T21:32:11.400Z,6.07
2023-04-14T21:34:38.154Z,6.33
2023-04-14T21:37:04.801Z,6.53
2023-04-14T21:39:33.144Z,6.13
2023-04-14T21:42:01.342Z,6.97
2023-04-14T21:44:28.119Z,7.50
2023-04-14T21:46:55.490Z,7.77
2023-04-14T21:49:22.537Z,7.13
2023-04-14T21:51:52.465Z,7.27
2023-04-14T21:54:19.434Z,6.90
2023-04-14T21:56:46.217Z,6.90
2023-04-14T21:59:12.886Z,7.13
2023-04-14T22:01:39.903Z,7.03
2023-04-14T22:04:06.726Z,8.10
2023-04-14T22:06:33.993Z,7.43
2023-04-14T22:09:01.066Z,7.37
2023-04-14T22:11:28.686Z,6.57
2023-04-14T22:13:56.543Z,7.10
2023-04-14T22:16:23.341Z,6.63
2023-04-14T22:18:50.101Z,6.73
2023-04-14T22:21:16.724Z,6.70
2023-04-14T22:23:43.643Z,6.03
2023-04-14T22:26:10.523Z,6.60
2023-04-14T22:28:37.346Z,6.27
2023-04-14T22:31:04.095Z,6.00
2023-04-14T22:33:30.941Z,6.70
2023-04-14T22:35:59.937Z,7.17
2023-04-14T22:38:26.678Z,6.13
2023-04-14T22:40:53.364Z,6.77
2023-04-14T22:43:20.053Z,6.00
2023-04-14T22:45:46.912Z,6.77
2023-04-14T22:48:14.497Z,7.37
2023-04-14T22:50:41.121Z,6.83
2023-04-14T22:53:08.193Z,6.43
2023-04-14T22:55:34.892Z,6.57
2023-04-14T22:58:01.734Z,6.33
2023-04-14T23:00:28.632Z,6.47
2023-04-14T23:02:55.849Z,6.47
2023-04-14T23:05:22.745Z,6.07
2023-04-14T23:07:49.490Z,6.10
2023-04-14T23:10:16.314Z,6.17
2023-04-14T23:12:42.936Z,6.00
2023-04-14T23:15:09.617Z,6.20
2023-04-14T23:17:36.586Z,6.43
2023-04-14T23:20:03.520Z,5.50
2023-04-14T23:22:30.180Z,5.60
2023-04-14T23:24:57.123Z,6.60
2023-04-14T23:27:23.874Z,6.00
2023-04-14T23:29:50.557Z,6.60
2023-04-14T23:32:17.175Z,5.97
2023-04-14T23:34:43.919Z,5.13
2023-04-14T23:37:11.493Z,6.50
2023-04-14T23:39:38.142Z,6.00
2023-04-14T23:42:04.857Z,5.80
2023-04-14T23:44:31.655Z,5.87
2023-04-14T23:46:58.381Z,6.13
2023-04-14T23:49:34.115Z,6.00
2023-04-14T23:52:01.447Z,5.90
2023-04-14T23:54:30.334Z,5.60
2023-04-14T23:56:57.131Z,6.37
2023-04-14T23:59:23.825Z,5.93
